Time;durP1;ratioP1;P1;durP2;ratioP2;P2;SDS_P1;SDS_P2;PMS_P1;PMS_P2;Temp;Humidity;BMP_temperature;BMP_pressure;BME280_temperature;BME280_humidity;BME280_pressure;Samples;Min_cycle;Max_cycle;Signal;HPM_P1;HPM_P2
2024/02/28 00:00:00;;;;;;;13.13;6.18;;;4.00;99.90;;;;;;4967916;28;20054;-84
2024/02/28 00:02:27;;;;;;;15.38;5.53;;;4.00;99.90;;;;;;4921924;29;20407;-84
2024/02/28 00:04:54;;;;;;;12.93;5.80;;;4.00;99.90;;;;;;4931603;29;20510;-84
2024/02/28 00:07:21;;;;;;;11.73;5.05;;;4.00;99.90;;;;;;4932640;28;20102;-84
2024/02/28 00:09:48;;;;;;;18.40;7.85;;;4.00;99.90;;;;;;4953198;28;20043;-83
2024/02/28 00:12:15;;;;;;;14.77;7.03;;;4.00;99.90;;;;;;4935288;28;20046;-84
2024/02/28 00:14:42;;;;;;;13.65;5.90;;;3.90;99.90;;;;;;4974845;28;20557;-84
2024/02/28 00:17:11;;;;;;;13.27;5.95;;;3.90;99.90;;;;;;4927382;28;20054;-83
2024/02/28 00:19:38;;;;;;;16.27;6.57;;;3.90;99.90;;;;;;4955242;28;20055;-83
2024/02/28 00:22:05;;;;;;;16.55;6.25;;;3.90;99.90;;;;;;4922745;29;20077;-83
2024/02/28 00:24:32;;;;;;;25.02;9.38;;;3.90;99.90;;;;;;4962280;28;20099;-82
2024/02/28 00:27:00;;;;;;;17.30;7.30;;;3.80;99.90;;;;;;4929732;28;20383;-83
2024/02/28 00:29:27;;;;;;;17.95;7.75;;;3.80;99.90;;;;;;4943415;28;20444;-82
2024/02/28 00:31:54;;;;;;;16.52;8.07;;;3.80;99.90;;;;;;4925777;28;20070;-82
2024/02/28 00:34:21;;;;;;;15.30;6.97;;;3.70;99.90;;;;;;4932421;28;20106;-82
2024/02/28 00:36:48;;;;;;;14.65;6.28;;;3.70;99.90;;;;;;4927118;28;20055;-83
2024/02/28 00:39:22;;;;;;;17.23;7.65;;;3.80;99.90;;;;;;4949867;28;20090;-83
2024/02/28 00:41:49;;;;;;;16.83;6.88;;;3.80;99.90;;;;;;4930687;28;20051;-82
2024/02/28 00:44:16;;;;;;;13.38;5.65;;;3.80;99.90;;;;;;4933969;28;20133;-82
2024/02/28 00:46:43;;;;;;;13.90;6.13;;;3.80;99.90;;;;;;4937272;28;20511;-83
2024/02/28 00:49:11;;;;;;;13.43;5.68;;;3.80;99.90;;;;;;4950115;28;20109;-83
2024/02/28 00:51:38;;;;;;;13.45;5.20;;;3.80;99.90;;;;;;4965946;28;20104;-83
2024/02/28 00:54:05;;;;;;;14.90;6.45;;;3.80;99.90;;;;;;4952022;28;20054;-82
2024/02/28 00:56:32;;;;;;;12.18;5.65;;;3.80;99.90;;;;;;4935626;29;20059;-78
2024/02/28 00:58:59;;;;;;;13.07;5.05;;;3.80;99.90;;;;;;4943782;28;20043;-83
2024/02/28 01:01:27;;;;;;;15.75;6.03;;;3.80;99.90;;;;;;4934071;28;20433;-77
2024/02/28 01:03:54;;;;;;;12.48;5.35;;;3.80;99.90;;;;;;4928826;28;20046;-77
2024/02/28 01:06:21;;;;;;;11.82;5.18;;;3.80;99.90;;;;;;4935134;29;20094;-81
2024/02/28 01:08:48;;;;;;;13.13;5.00;;;3.80;99.90;;;;;;4928227;28;20043;-77
2024/02/28 01:11:15;;;;;;;10.45;4.53;;;3.80;99.90;;;;;;4934526;29;20039;-83
2024/02/28 01:13:42;;;;;;;9.73;4.65;;;3.80;99.90;;;;;;4952322;28;20051;-82
2024/02/28 01:16:09;;;;;;;15.20;5.93;;;3.80;99.90;;;;;;4969967;28;20062;-77
2024/02/28 01:18:36;;;;;;;13.27;6.07;;;3.80;99.90;;;;;;4959356;28;20503;-82
2024/02/28 01:21:03;;;;;;;12.80;4.90;;;3.90;99.90;;;;;;4943498;28;20141;-78
2024/02/28 01:23:31;;;;;;;12.45;4.90;;;3.90;99.90;;;;;;4934239;28;20051;-82
2024/02/28 01:25:58;;;;;;;16.55;6.00;;;3.90;99.90;;;;;;4930043;28;20075;-77
2024/02/28 01:28:25;;;;;;;13.02;6.20;;;3.90;99.90;;;;;;4961375;28;20117;-77
2024/02/28 01:30:52;;;;;;;12.75;4.75;;;4.00;99.90;;;;;;4967689;28;20034;-82
2024/02/28 01:33:19;;;;;;;13.30;5.70;;;3.90;99.90;;;;;;4959130;28;20051;-82
2024/02/28 01:35:47;;;;;;;12.95;5.30;;;3.90;99.90;;;;;;4969632;28;20418;-82
2024/02/28 01:38:14;;;;;;;11.85;5.47;;;4.00;99.90;;;;;;4961412;28;20046;-78
2024/02/28 01:40:46;;;;;;;10.65;5.18;;;4.00;99.90;;;;;;4919771;28;20055;-78
2024/02/28 01:43:13;;;;;;;18.37;7.93;;;4.00;99.90;;;;;;4976039;28;20071;-82
2024/02/28 01:45:40;;;;;;;21.45;9.63;;;3.90;99.90;;;;;;4958719;28;20042;-77
2024/02/28 01:48:10;;;;;;;17.75;7.82;;;3.90;99.90;;;;;;4960055;28;20043;-82
2024/02/28 01:50:38;;;;;;;18.33;7.28;;;3.90;99.90;;;;;;4943829;28;20039;-82
2024/02/28 01:53:11;;;;;;;19.50;8.93;;;3.90;99.90;;;;;;4976390;28;20483;-77
2024/02/28 01:55:38;;;;;;;27.80;13.93;;;3.90;99.90;;;;;;4976412;28;20487;-82
2024/02/28 01:58:06;;;;;;;27.65;12.75;;;3.80;99.90;;;;;;4945743;28;20097;-77
2024/02/28 02:00:34;;;;;;;29.33;13.45;;;3.80;99.90;;;;;;4929341;28;20043;-82
2024/02/28 02:03:01;;;;;;;25.88;12.57;;;3.70;99.90;;;;;;4954015;28;20051;-78
2024/02/28 02:05:29;;;;;;;35.55;16.83;;;3.70;99.90;;;;;;4929598;28;20051;-82
2024/02/28 02:07:58;;;;;;;29.55;14.05;;;3.70;99.90;;;;;;4920895;29;20543;-82
2024/02/28 02:10:28;;;;;;;29.15;12.52;;;3.60;99.90;;;;;;4945928;28;20499;-77
2024/02/28 02:12:55;;;;;;;26.25;12.25;;;3.60;99.90;;;;;;4971993;28;20073;-82
2024/02/28 02:15:22;;;;;;;28.00;13.13;;;3.60;99.90;;;;;;4953491;28;20491;-82
2024/02/28 02:17:49;;;;;;;33.15;15.20;;;3.60;99.90;;;;;;4917916;28;20138;-82
2024/02/28 02:20:19;;;;;;;33.47;13.68;;;3.60;99.90;;;;;;4930049;28;20057;-77
2024/02/28 02:22:47;;;;;;;25.42;11.20;;;3.60;99.90;;;;;;4942305;29;20066;-82
2024/02/28 02:25:14;;;;;;;26.52;13.05;;;3.60;99.90;;;;;;4953440;28;20053;-82
2024/02/28 02:27:41;;;;;;;25.60;12.23;;;3.60;99.90;;;;;;4946529;28;20499;-81
2024/02/28 02:30:08;;;;;;;24.15;10.98;;;3.50;99.90;;;;;;4953671;28;20054;-77
2024/02/28 02:32:36;;;;;;;20.65;9.80;;;3.50;99.90;;;;;;4931114;28;20487;-77
2024/02/28 02:35:03;;;;;;;21.60;9.60;;;3.50;99.90;;;;;;4940411;28;20126;-82
2024/02/28 02:37:30;;;;;;;23.40;11.00;;;3.60;99.90;;;;;;4922449;28;20053;-82
2024/02/28 02:39:57;;;;;;;23.80;11.40;;;3.60;99.90;;;;;;4954861;28;20051;-77
2024/02/28 02:42:24;;;;;;;20.70;10.48;;;3.60;99.90;;;;;;4926394;28;20063;-82
2024/02/28 02:44:51;;;;;;;20.73;10.23;;;3.50;99.90;;;;;;4940925;28;20494;-77
2024/02/28 02:47:19;;;;;;;22.73;9.13;;;3.50;99.90;;;;;;4952502;28;20971;-77
2024/02/28 02:49:46;;;;;;;19.15;8.63;;;3.50;99.90;;;;;;4973839;28;20053;-82
2024/02/28 02:52:13;;;;;;;22.55;9.00;;;3.50;99.90;;;;;;4941560;28;20058;-78
2024/02/28 02:54:40;;;;;;;18.67;8.10;;;3.60;99.90;;;;;;4925902;28;20062;-82
2024/02/28 02:57:07;;;;;;;14.63;7.40;;;3.50;99.90;;;;;;4928038;28;20141;-77
2024/02/28 02:59:35;;;;;;;15.40;7.13;;;3.60;99.90;;;;;;4944783;29;20043;-77
2024/02/28 03:02:03;;;;;;;17.50;7.60;;;3.50;99.90;;;;;;4951729;28;20051;-78
2024/02/28 03:04:30;;;;;;;19.50;8.75;;;3.50;99.90;;;;;;4937224;28;20039;-77
2024/02/28 03:06:57;;;;;;;21.73;10.00;;;3.50;99.90;;;;;;4935857;28;20105;-77
2024/02/28 03:09:24;;;;;;;19.52;9.13;;;3.50;99.90;;;;;;4942243;28;20034;-82
2024/02/28 03:11:51;;;;;;;17.85;8.25;;;3.40;99.90;;;;;;4957738;28;20097;-77
2024/02/28 03:14:21;;;;;;;19.10;8.98;;;3.40;99.90;;;;;;4925796;28;20038;-77
2024/02/28 03:16:49;;;;;;;19.60;8.80;;;3.40;99.90;;;;;;4954365;28;20040;-82
2024/02/28 03:19:16;;;;;;;19.90;9.13;;;3.40;99.90;;;;;;4941621;28;20521;-82
2024/02/28 03:21:43;;;;;;;20.83;9.45;;;3.40;99.90;;;;;;4968845;28;20053;-77
2024/02/28 03:24:10;;;;;;;20.85;9.18;;;3.30;99.90;;;;;;4932011;28;20043;-82
2024/02/28 03:26:37;;;;;;;19.55;8.38;;;3.30;99.90;;;;;;4944845;28;20133;-76
2024/02/28 03:29:04;;;;;;;17.20;7.78;;;3.30;99.90;;;;;;4931474;29;20099;-77
2024/02/28 03:31:31;;;;;;;14.63;6.47;;;3.40;99.90;;;;;;4945750;28;20093;-77
2024/02/28 03:33:59;;;;;;;16.67;6.55;;;3.30;99.90;;;;;;4981192;28;20137;-81
2024/02/28 03:36:28;;;;;;;13.88;6.22;;;3.40;99.90;;;;;;4953582;28;20044;-77
2024/02/28 03:38:55;;;;;;;12.88;5.80;;;3.40;99.90;;;;;;4986915;28;20125;-82
2024/02/28 03:41:22;;;;;;;12.60;5.82;;;3.40;99.90;;;;;;4975436;28;20061;-81
2024/02/28 03:43:49;;;;;;;14.60;6.35;;;3.40;99.90;;;;;;4949137;28;20129;-82
2024/02/28 03:46:16;;;;;;;15.27;6.82;;;3.40;99.90;;;;;;4944969;28;20066;-77
2024/02/28 03:48:43;;;;;;;16.75;6.82;;;3.40;99.90;;;;;;4958049;28;20082;-82
2024/02/28 03:51:10;;;;;;;13.85;6.68;;;3.50;99.90;;;;;;4961382;28;20043;-77
2024/02/28 03:53:37;;;;;;;14.63;6.68;;;3.50;99.90;;;;;;4951192;28;20046;-81
2024/02/28 03:56:04;;;;;;;14.55;6.75;;;3.50;99.90;;;;;;4936123;28;20050;-82
2024/02/28 03:58:31;;;;;;;15.48;7.50;;;3.60;99.90;;;;;;4973568;28;20057;-78
2024/02/28 04:00:58;;;;;;;15.73;7.18;;;3.50;99.90;;;;;;4929397;28;20042;-82
2024/02/28 04:03:25;;;;;;;14.68;6.45;;;3.50;99.90;;;;;;4928172;28;20097;-82
2024/02/28 04:05:52;;;;;;;11.10;5.70;;;3.50;99.90;;;;;;4970348;28;20050;-77
2024/02/28 04:08:19;;;;;;;11.60;5.55;;;3.50;99.90;;;;;;4964962;28;20373;-77
2024/02/28 04:10:46;;;;;;;11.95;4.90;;;3.50;99.90;;;;;;4927532;28;20098;-77
2024/02/28 04:13:13;;;;;;;13.32;5.60;;;3.50;99.90;;;;;;4946454;28;20047;-82
2024/02/28 04:15:40;;;;;;;10.00;4.15;;;3.50;99.90;;;;;;4948196;28;20046;-82
2024/02/28 04:18:07;;;;;;;10.27;4.55;;;3.50;99.90;;;;;;4936891;28;20495;-81
2024/02/28 04:20:34;;;;;;;9.63;4.30;;;3.50;99.90;;;;;;4940197;28;20053;-81
2024/02/28 04:23:01;;;;;;;11.45;5.53;;;3.50;99.90;;;;;;4945792;28;20055;-81
2024/02/28 04:25:28;;;;;;;10.73;4.65;;;3.50;99.90;;;;;;4949704;28;20086;-82
2024/02/28 04:27:56;;;;;;;12.85;4.97;;;3.50;99.90;;;;;;4949004;28;20086;-81
2024/02/28 04:30:24;;;;;;;11.95;5.03;;;3.50;99.90;;;;;;4977831;28;20090;-77
2024/02/28 04:32:51;;;;;;;10.15;4.85;;;3.50;99.90;;;;;;4947586;29;20122;-79
2024/02/28 04:35:18;;;;;;;8.77;4.18;;;3.50;99.90;;;;;;4931398;29;20559;-81
2024/02/28 04:37:46;;;;;;;11.70;4.90;;;3.50;99.90;;;;;;4960246;28;20070;-77
2024/02/28 04:40:13;;;;;;;10.05;5.30;;;3.50;99.90;;;;;;4946313;28;20043;-81
2024/02/28 04:42:41;;;;;;;10.95;4.88;;;3.50;99.90;;;;;;4945869;29;20123;-77
2024/02/28 04:45:09;;;;;;;10.50;4.82;;;3.50;99.90;;;;;;4924912;28;20491;-77
2024/02/28 04:47:37;;;;;;;11.02;4.75;;;3.50;99.90;;;;;;4936958;29;20094;-82
2024/02/28 04:50:11;;;;;;;10.13;4.40;;;3.50;99.90;;;;;;4952573;29;20046;-77
2024/02/28 04:52:38;;;;;;;9.57;4.10;;;3.50;99.90;;;;;;4929623;28;20054;-77
2024/02/28 04:55:05;;;;;;;8.80;4.35;;;3.60;99.90;;;;;;4930646;29;20059;-77
2024/02/28 04:57:32;;;;;;;11.60;4.50;;;3.50;99.90;;;;;;4940913;29;20062;-82
2024/02/28 05:00:00;;;;;;;11.50;5.60;;;3.50;99.90;;;;;;4940631;29;20051;-77
2024/02/28 05:02:27;;;;;;;11.07;5.78;;;3.50;99.90;;;;;;4921211;29;20048;-82
2024/02/28 05:04:54;;;;;;;10.07;5.15;;;3.50;99.90;;;;;;4949447;28;20043;-82
2024/02/28 05:07:22;;;;;;;13.52;6.07;;;3.40;99.90;;;;;;4928316;29;20047;-82
2024/02/28 05:09:49;;;;;;;27.15;8.80;;;3.40;99.90;;;;;;4956456;29;20459;-82
2024/02/28 05:12:16;;;;;;;17.63;9.05;;;3.40;99.90;;;;;;4940457;29;20047;-82
2024/02/28 05:14:43;;;;;;;18.38;9.63;;;3.30;99.90;;;;;;4957503;29;20118;-82
2024/02/28 05:17:10;;;;;;;17.55;9.13;;;3.20;99.90;;;;;;4914187;28;20052;-77
2024/02/28 05:19:39;;;;;;;14.90;7.28;;;3.10;99.90;;;;;;4909254;29;20066;-82
2024/02/28 05:22:06;;;;;;;15.50;7.32;;;3.10;99.90;;;;;;4925001;29;20070;-82
2024/02/28 05:24:33;;;;;;;12.50;6.65;;;3.10;99.90;;;;;;4924543;29;20103;-78
2024/02/28 05:27:00;;;;;;;12.05;5.80;;;3.10;99.90;;;;;;4921340;28;20047;-77
2024/02/28 05:29:27;;;;;;;12.43;5.85;;;3.10;99.90;;;;;;4910244;29;20074;-82
2024/02/28 05:31:55;;;;;;;12.13;6.43;;;3.10;99.90;;;;;;4918465;29;20459;-77
2024/02/28 05:34:22;;;;;;;11.85;5.63;;;3.10;99.90;;;;;;4906013;29;20408;-81
2024/02/28 05:36:50;;;;;;;12.18;5.65;;;3.10;99.90;;;;;;4908186;29;20043;-77
2024/02/28 05:39:17;;;;;;;13.43;6.60;;;3.10;99.90;;;;;;4928544;28;20054;-77
2024/02/28 05:41:44;;;;;;;11.00;5.78;;;3.10;99.90;;;;;;4928698;29;20592;-82
2024/02/28 05:44:11;;;;;;;11.70;6.13;;;3.10;99.90;;;;;;4901438;29;20412;-79
2024/02/28 05:46:38;;;;;;;13.55;6.72;;;3.10;99.90;;;;;;4933738;29;20062;-82
2024/02/28 05:49:05;;;;;;;12.88;6.30;;;3.10;99.90;;;;;;4926556;29;20377;-82
2024/02/28 05:51:32;;;;;;;12.52;6.28;;;3.10;99.90;;;;;;4930735;28;20511;-77
2024/02/28 05:53:59;;;;;;;13.70;5.75;;;3.10;99.90;;;;;;4922591;29;20050;-82
2024/02/28 05:56:26;;;;;;;11.38;5.70;;;3.10;99.90;;;;;;4914597;29;20047;-82
2024/02/28 05:58:53;;;;;;;8.55;4.57;;;3.10;99.90;;;;;;4895035;29;20112;-82
2024/02/28 06:01:20;;;;;;;9.13;4.40;;;3.10;99.90;;;;;;4930155;29;20123;-82
2024/02/28 06:03:48;;;;;;;9.77;4.82;;;3.20;99.90;;;;;;4923419;29;20047;-82
2024/02/28 06:06:15;;;;;;;8.52;4.65;;;3.10;99.90;;;;;;4920694;29;20588;-82
2024/02/28 06:08:43;;;;;;;11.80;5.45;;;3.10;99.90;;;;;;4920301;29;20489;-82
2024/02/28 06:11:10;;;;;;;10.05;4.82;;;3.10;99.90;;;;;;4950922;28;20044;-77
2024/02/28 06:13:41;;;;;;;9.55;3.92;;;3.10;99.90;;;;;;4931980;28;20146;-77
2024/02/28 06:16:13;;;;;;;8.68;4.47;;;3.10;99.90;;;;;;4944725;28;20050;-77
2024/02/28 06:18:40;;;;;;;9.20;4.75;;;3.00;99.90;;;;;;4939582;28;20050;-82
2024/02/28 06:21:07;;;;;;;10.20;5.28;;;3.00;99.90;;;;;;4926111;29;20039;-77
2024/02/28 06:23:34;;;;;;;9.27;4.60;;;3.00;99.90;;;;;;4939388;29;20051;-77
2024/02/28 06:26:01;;;;;;;13.25;5.97;;;2.90;99.90;;;;;;4923104;29;20436;-81
2024/02/28 06:28:28;;;;;;;10.63;4.93;;;2.90;99.90;;;;;;4923273;29;20043;-77
2024/02/28 06:30:55;;;;;;;11.82;6.15;;;2.90;99.90;;;;;;4922519;29;20384;-82
2024/02/28 06:33:22;;;;;;;10.25;5.65;;;2.90;99.90;;;;;;4909655;29;20078;-82
2024/02/28 06:35:49;;;;;;;10.23;5.72;;;2.90;99.90;;;;;;4944961;28;20043;-77
2024/02/28 06:38:16;;;;;;;10.45;5.43;;;2.90;99.90;;;;;;4975332;28;20109;-77
2024/02/28 06:40:43;;;;;;;11.40;5.15;;;2.90;99.90;;;;;;4942004;28;20054;-81
2024/02/28 06:43:10;;;;;;;10.55;5.00;;;2.90;99.90;;;;;;4923191;29;20491;-82
2024/02/28 06:45:37;;;;;;;9.48;4.93;;;2.90;99.90;;;;;;4974098;28;20484;-77
2024/02/28 06:48:05;;;;;;;9.40;4.88;;;3.00;99.90;;;;;;4931227;29;20567;-77
2024/02/28 06:50:32;;;;;;;10.68;5.15;;;2.90;99.90;;;;;;4985163;28;20042;-81
2024/02/28 06:52:59;;;;;;;8.60;4.85;;;3.00;99.90;;;;;;4943725;28;20053;-83
2024/02/28 06:55:26;;;;;;;9.52;4.68;;;3.00;99.90;;;;;;4915137;28;20047;-81
2024/02/28 06:57:53;;;;;;;11.05;5.15;;;3.00;99.90;;;;;;4934238;29;20409;-82
2024/02/28 07:00:20;;;;;;;11.20;6.30;;;3.10;99.90;;;;;;4956151;28;20129;-82
2024/02/28 07:02:47;;;;;;;7.60;4.60;;;3.10;99.90;;;;;;4910146;28;20069;-82
2024/02/28 07:05:14;;;;;;;9.02;4.82;;;3.10;99.90;;;;;;4927192;29;20051;-81
2024/02/28 07:07:41;;;;;;;9.75;5.43;;;3.10;99.90;;;;;;4957612;28;20046;-76
2024/02/28 07:10:09;;;;;;;8.60;4.32;;;3.20;99.90;;;;;;4951282;28;20050;-77
2024/02/28 07:12:36;;;;;;;8.73;4.88;;;3.20;99.90;;;;;;4960064;28;20081;-82
2024/02/28 07:15:03;;;;;;;10.18;5.50;;;3.30;99.90;;;;;;4919218;28;20046;-77
2024/02/28 07:17:31;;;;;;;10.98;5.78;;;3.30;99.90;;;;;;4953077;28;20046;-77
2024/02/28 07:19:59;;;;;;;12.50;6.47;;;3.30;99.90;;;;;;4928035;28;20133;-77
2024/02/28 07:22:26;;;;;;;12.85;5.93;;;3.40;99.90;;;;;;4945159;28;20051;-77
2024/02/28 07:24:53;;;;;;;10.80;5.50;;;3.40;99.90;;;;;;4925990;28;20062;-78
2024/02/28 07:27:24;;;;;;;12.40;5.97;;;3.40;99.90;;;;;;4969270;28;20138;-77
2024/02/28 07:29:51;;;;;;;10.63;6.13;;;3.50;99.90;;;;;;4964933;28;20038;-78
2024/02/28 07:32:18;;;;;;;12.57;6.68;;;3.50;99.90;;;;;;4922585;29;20043;-77
2024/02/28 07:34:45;;;;;;;9.05;4.97;;;3.50;99.90;;;;;;4925672;28;20066;-82
2024/02/28 07:37:12;;;;;;;10.25;5.50;;;3.50;99.90;;;;;;4953271;28;20090;-76
2024/02/28 07:39:39;;;;;;;10.85;4.97;;;3.60;99.90;;;;;;4944026;28;20050;-77
2024/02/28 07:42:06;;;;;;;9.73;4.97;;;3.60;99.90;;;;;;4949505;28;20435;-82
2024/02/28 07:44:33;;;;;;;8.73;4.55;;;3.60;99.90;;;;;;4947418;28;20057;-83
2024/02/28 07:47:00;;;;;;;13.80;6.75;;;3.70;99.90;;;;;;4931164;28;20043;-80
2024/02/28 07:49:27;;;;;;;11.18;5.88;;;3.70;99.90;;;;;;4947630;28;20045;-76
2024/02/28 07:51:55;;;;;;;10.98;6.28;;;3.80;99.90;;;;;;4948123;28;20039;-76
2024/02/28 07:54:22;;;;;;;10.25;5.80;;;3.80;99.90;;;;;;4953880;28;20108;-80
2024/02/28 07:56:49;;;;;;;10.43;6.32;;;3.90;99.90;;;;;;4934646;29;20055;-83
2024/02/28 07:59:18;;;;;;;11.88;6.65;;;3.90;99.90;;;;;;4933481;28;20129;-76
2024/02/28 08:01:46;;;;;;;10.80;6.15;;;4.00;99.90;;;;;;4942194;28;20172;-82
2024/02/28 08:04:13;;;;;;;14.35;8.02;;;4.10;99.90;;;;;;4963134;28;20499;-76
2024/02/28 08:06:40;;;;;;;18.25;10.63;;;4.20;99.90;;;;;;4969611;28;20046;-81
2024/02/28 08:09:08;;;;;;;21.10;12.98;;;4.20;99.90;;;;;;4918477;28;20082;-80
2024/02/28 08:11:39;;;;;;;20.73;11.43;;;4.10;99.90;;;;;;4953825;28;20403;-76
2024/02/28 08:14:06;;;;;;;23.48;14.18;;;4.10;99.90;;;;;;4958066;28;20120;-76
2024/02/28 08:16:33;;;;;;;25.27;15.63;;;4.10;99.90;;;;;;4958638;28;20479;-76
2024/02/28 08:19:00;;;;;;;24.95;13.95;;;4.10;99.90;;;;;;4943513;28;20070;-81
2024/02/28 08:21:29;;;;;;;23.45;14.05;;;4.00;99.90;;;;;;4976688;28;20538;-80
2024/02/28 08:23:57;;;;;;;24.88;14.05;;;4.10;99.90;;;;;;4991691;28;20050;-81
2024/02/28 08:26:24;;;;;;;23.67;13.48;;;4.10;99.90;;;;;;4933110;28;20049;-77
2024/02/28 08:28:54;;;;;;;25.00;12.23;;;4.20;99.90;;;;;;4968132;28;20506;-76
2024/02/28 08:31:23;;;;;;;24.48;13.32;;;4.30;99.90;;;;;;4975672;28;20545;-76
2024/02/28 08:33:50;;;;;;;29.05;16.92;;;4.50;99.90;;;;;;4974125;28;20491;-80
2024/02/28 08:36:17;;;;;;;27.98;15.13;;;4.50;99.90;;;;;;4976474;28;20089;-81
2024/02/28 08:38:44;;;;;;;24.55;13.05;;;4.50;99.90;;;;;;4961798;28;20141;-76
2024/02/28 08:41:12;;;;;;;25.13;15.02;;;4.50;99.90;;;;;;4958150;28;20042;-81
2024/02/28 08:43:40;;;;;;;29.17;17.17;;;4.50;99.90;;;;;;4955657;28;20496;-81
2024/02/28 08:46:07;;;;;;;30.85;16.05;;;4.50;99.90;;;;;;4932394;28;20070;-81
2024/02/28 08:48:35;;;;;;;31.45;15.77;;;4.50;99.90;;;;;;4954587;28;20047;-81
2024/02/28 08:51:02;;;;;;;32.42;16.65;;;4.50;99.90;;;;;;4968495;28;20099;-82
2024/02/28 08:53:29;;;;;;;34.58;18.90;;;4.50;99.90;;;;;;4957153;28;20047;-81
2024/02/28 08:55:56;;;;;;;37.05;19.40;;;4.40;99.90;;;;;;4966107;28;20061;-76
2024/02/28 08:58:23;;;;;;;35.10;18.65;;;4.50;99.90;;;;;;4962592;28;20047;-80
2024/02/28 09:00:50;;;;;;;38.28;19.13;;;4.50;99.90;;;;;;4927950;28;20050;-76
2024/02/28 09:03:17;;;;;;;31.23;15.85;;;4.60;99.90;;;;;;4928903;29;20051;-76
2024/02/28 09:05:44;;;;;;;28.85;15.45;;;4.70;99.90;;;;;;4970272;28;20430;-81
2024/02/28 09:08:11;;;;;;;27.40;15.27;;;4.80;99.90;;;;;;4964046;28;20093;-77
2024/02/28 09:10:40;;;;;;;25.48;13.80;;;4.90;99.90;;;;;;4946250;28;20121;-81
2024/02/28 09:13:07;;;;;;;22.85;13.25;;;5.00;99.90;;;;;;4976788;28;20045;-76
2024/02/28 09:15:35;;;;;;;27.05;15.38;;;5.10;99.90;;;;;;4959953;28;20093;-81
2024/02/28 09:18:02;;;;;;;27.30;14.05;;;5.20;99.90;;;;;;4959689;28;20093;-82
2024/02/28 09:20:29;;;;;;;28.20;15.38;;;5.30;99.90;;;;;;4932099;29;20044;-76
2024/02/28 09:22:56;;;;;;;26.70;14.90;;;5.40;99.90;;;;;;4937742;28;20047;-76
2024/02/28 09:25:23;;;;;;;28.00;14.90;;;5.40;99.90;;;;;;4946377;28;20047;-81
2024/02/28 09:27:54;;;;;;;34.38;17.30;;;5.40;99.90;;;;;;4957492;28;20041;-76
2024/02/28 09:30:22;;;;;;;30.08;16.90;;;5.30;99.90;;;;;;4943985;28;20098;-77
2024/02/28 09:32:51;;;;;;;29.83;16.70;;;5.20;99.90;;;;;;4957029;28;20054;-78
2024/02/28 09:35:19;;;;;;;29.90;16.10;;;5.20;99.90;;;;;;4944081;29;20152;-76
2024/02/28 09:37:46;;;;;;;32.97;17.98;;;5.20;99.90;;;;;;4930164;29;20099;-81
2024/02/28 09:40:13;;;;;;;28.95;16.98;;;5.10;99.90;;;;;;4923346;29;20043;-76
2024/02/28 09:42:40;;;;;;;29.20;15.93;;;5.10;99.90;;;;;;4920959;29;20130;-76
2024/02/28 09:45:11;;;;;;;25.27;13.80;;;5.10;99.90;;;;;;4930296;28;20054;-76
2024/02/28 09:47:39;;;;;;;27.50;14.88;;;5.00;99.90;;;;;;4951475;29;20047;-81
2024/02/28 09:50:07;;;;;;;28.73;14.57;;;5.10;99.90;;;;;;4940271;28;20040;-76
2024/02/28 09:52:35;;;;;;;25.05;15.05;;;5.10;99.90;;;;;;4958657;28;20074;-83
2024/02/28 09:55:02;;;;;;;26.65;16.25;;;5.20;99.90;;;;;;4930271;28;20384;-76
2024/02/28 09:57:32;;;;;;;25.10;13.65;;;5.20;99.90;;;;;;4917807;28;20035;-76
2024/02/28 10:00:00;;;;;;;26.08;14.50;;;5.30;99.90;;;;;;4947876;28;20049;-76
2024/02/28 10:02:33;;;;;;;24.98;13.98;;;5.30;99.90;;;;;;4958296;28;20039;-82
2024/02/28 10:05:03;;;;;;;22.38;12.43;;;5.40;99.90;;;;;;4909562;28;20047;-82
2024/02/28 10:07:31;;;;;;;20.95;11.60;;;5.60;99.90;;;;;;4925201;28;20237;-79
2024/02/28 10:09:58;;;;;;;19.75;10.45;;;5.80;99.90;;;;;;4941716;28;20049;-88
2024/02/28 10:12:25;;;;;;;20.45;12.02;;;5.90;99.90;;;;;;4940566;28;20050;-81
2024/02/28 10:14:52;;;;;;;20.88;11.38;;;6.00;99.90;;;;;;4931138;28;20051;-89
2024/02/28 10:17:19;;;;;;;23.33;13.55;;;6.00;99.90;;;;;;4953147;28;20146;-88
2024/02/28 10:19:47;;;;;;;25.48;14.55;;;6.10;99.90;;;;;;4928141;29;20098;-80
2024/02/28 10:22:24;;;;;;;25.83;14.85;;;6.10;99.90;;;;;;4939319;28;20053;-86
2024/02/28 10:25:01;;;;;;;23.05;13.90;;;6.10;99.90;;;;;;4918707;29;20076;-79
2024/02/28 10:27:31;;;;;;;25.67;12.95;;;6.30;99.90;;;;;;4911640;29;20039;-88
2024/02/28 10:29:58;;;;;;;21.33;11.75;;;6.40;99.90;;;;;;4903899;29;20048;-80
2024/02/28 10:32:25;;;;;;;19.75;12.30;;;6.60;99.90;;;;;;4939876;29;20047;-80
2024/02/28 10:34:54;;;;;;;21.63;11.93;;;6.60;99.90;;;;;;4949561;28;20174;-86
2024/02/28 10:37:24;;;;;;;18.23;10.25;;;6.70;99.90;;;;;;4960018;28;20047;-87
2024/02/28 10:39:54;;;;;;;19.15;11.30;;;6.80;99.90;;;;;;4972384;28;20051;-79
2024/02/28 10:42:23;;;;;;;19.48;11.88;;;6.90;99.90;;;;;;4947975;28;20039;-87
2024/02/28 10:44:52;;;;;;;23.63;12.88;;;6.90;99.90;;;;;;4955171;28;20093;-80
2024/02/28 10:47:39;;;;;;;19.80;11.32;;;7.00;99.90;;;;;;4942889;28;20042;-87
2024/02/28 10:50:07;;;;;;;19.92;12.32;;;7.00;99.90;;;;;;4959925;28;20050;-80
2024/02/28 10:52:38;;;;;;;22.00;11.85;;;7.00;99.90;;;;;;4940026;28;20491;-80
2024/02/28 10:55:08;;;;;;;19.67;11.27;;;7.10;99.90;;;;;;4968073;28;20047;-87
2024/02/28 10:57:37;;;;;;;18.88;10.10;;;7.10;99.90;;;;;;4960241;28;20060;-82
2024/02/28 11:00:06;;;;;;;18.05;11.98;;;7.10;99.90;;;;;;4965751;28;20093;-88
2024/02/28 11:02:33;;;;;;;21.30;12.70;;;7.10;99.90;;;;;;4924930;29;20039;-87
2024/02/28 11:05:01;;;;;;;19.35;12.48;;;7.10;99.90;;;;;;4923351;29;20054;-80
2024/02/28 11:07:30;;;;;;;19.63;11.95;;;7.00;99.90;;;;;;4943522;28;20047;-89
2024/02/28 11:09:57;;;;;;;23.98;12.63;;;7.10;99.90;;;;;;4955013;28;20137;-87
2024/02/28 11:12:29;;;;;;;22.83;13.30;;;7.20;99.90;;;;;;4922909;28;20102;-80
2024/02/28 11:14:58;;;;;;;22.48;13.60;;;7.20;99.90;;;;;;4940757;28;20100;-78
2024/02/28 11:17:29;;;;;;;18.08;10.27;;;7.20;99.90;;;;;;4962076;28;20070;-86
2024/02/28 11:19:57;;;;;;;15.95;8.60;;;7.20;99.90;;;;;;4947083;28;20068;-76
2024/02/28 11:22:24;;;;;;;18.13;11.50;;;7.30;99.90;;;;;;4947276;28;20051;-81
2024/02/28 11:24:55;;;;;;;22.23;12.90;;;7.30;99.90;;;;;;4946165;28;20120;-81
2024/02/28 11:27:22;;;;;;;19.77;12.40;;;7.40;99.90;;;;;;4963992;28;20054;-76
2024/02/28 11:29:49;;;;;;;18.33;11.20;;;7.40;99.90;;;;;;4912477;28;20483;-76
2024/02/28 11:32:16;;;;;;;17.52;9.63;;;7.50;99.90;;;;;;4945642;28;20051;-77
2024/02/28 11:34:45;;;;;;;18.85;11.85;;;7.60;99.90;;;;;;4957366;28;20121;-83
2024/02/28 11:37:12;;;;;;;18.65;11.48;;;7.60;99.90;;;;;;4912412;28;20097;-83
2024/02/28 11:39:39;;;;;;;17.65;10.73;;;7.70;99.90;;;;;;4947150;28;20054;-83
2024/02/28 11:42:14;;;;;;;19.30;11.57;;;7.70;99.90;;;;;;4892978;29;20057;-82
2024/02/28 11:44:41;;;;;;;21.10;11.30;;;7.70;99.90;;;;;;4938340;29;20047;-78
2024/02/28 11:47:10;;;;;;;21.00;11.60;;;7.70;99.90;;;;;;4941599;28;20058;-76
2024/02/28 11:49:38;;;;;;;24.77;14.65;;;7.70;99.90;;;;;;4957853;28;20045;-82
2024/02/28 11:52:05;;;;;;;21.20;12.75;;;7.70;99.90;;;;;;4957448;28;20042;-76
2024/02/28 11:54:33;;;;;;;25.25;14.93;;;7.70;99.90;;;;;;4957313;28;20046;-82
2024/02/28 11:57:00;;;;;;;26.58;15.80;;;7.70;99.90;;;;;;4943931;28;20061;-80
2024/02/28 11:59:27;;;;;;;23.30;15.02;;;7.60;99.90;;;;;;4960837;28;20058;-76
2024/02/28 12:01:55;;;;;;;22.80;14.40;;;7.60;99.90;;;;;;4945457;28;20051;-82
2024/02/28 12:04:25;;;;;;;19.13;12.15;;;7.70;99.90;;;;;;4945103;28;20717;-77
2024/02/28 12:06:52;;;;;;;19.52;12.35;;;7.80;99.90;;;;;;4975889;28;20046;-76
2024/02/28 12:09:19;;;;;;;16.92;10.35;;;7.90;99.90;;;;;;4942416;28;20046;-81
2024/02/28 12:12:01;;;;;;;14.82;8.88;;;8.00;99.90;;;;;;4958450;28;20074;-75
2024/02/28 12:14:29;;;;;;;19.73;10.43;;;8.10;99.90;;;;;;4936850;29;20396;-81
2024/02/28 12:16:57;;;;;;;13.27;8.30;;;8.20;99.90;;;;;;4979803;28;20051;-76
2024/02/28 12:19:24;;;;;;;17.02;9.43;;;8.30;99.90;;;;;;4943325;28;20090;-81
2024/02/28 12:21:51;;;;;;;15.55;8.93;;;8.40;99.90;;;;;;4940874;28;20455;-76
2024/02/28 12:24:18;;;;;;;16.40;9.15;;;8.50;99.90;;;;;;4962054;28;20054;-76
2024/02/28 12:26:46;;;;;;;16.42;9.95;;;8.60;99.90;;;;;;4940943;28;20422;-83
2024/02/28 12:29:13;;;;;;;14.88;8.57;;;8.60;99.90;;;;;;4959663;28;20042;-84
2024/02/28 12:31:40;;;;;;;17.00;9.95;;;8.70;99.90;;;;;;4977835;28;20126;-80
2024/02/28 12:34:07;;;;;;;18.98;11.25;;;8.70;99.90;;;;;;4917675;29;20520;-76
2024/02/28 12:36:34;;;;;;;17.48;11.27;;;8.70;99.90;;;;;;4925404;29;20110;-81
2024/02/28 12:39:01;;;;;;;18.30;11.73;;;8.70;99.90;;;;;;4918845;29;20047;-82
2024/02/28 12:41:29;;;;;;;17.73;11.00;;;8.60;99.90;;;;;;4934434;29;20055;-81
2024/02/28 12:43:56;;;;;;;19.30;11.38;;;8.60;99.90;;;;;;4964408;28;20098;-76